Time;durP1;ratioP1;P1;durP2;ratioP2;P2;SDS_P1;SDS_P2;PMS_P1;PMS_P2;Temp;Humidity;BMP_temperature;BMP_pressure;BME280_temperature;BME280_humidity;BME280_pressure;Samples;Min_cycle;Max_cycle;Signal;HPM_P1;HPM_P2
2021/04/04 00:02:24;;;;;;;3.20;1.23;;;6.00;37.20;;;;;;2372153;53;20957;-61
2021/04/04 00:04:51;;;;;;;3.10;1.30;;;6.00;37.20;;;;;;2623995;52;21348;-61
2021/04/04 00:07:17;;;;;;;3.20;1.12;;;5.90;37.10;;;;;;2371693;53;21627;-61
2021/04/04 00:09:45;;;;;;;2.95;1.33;;;5.90;37.20;;;;;;2368623;53;20934;-62
2021/04/04 00:12:11;;;;;;;3.22;1.40;;;5.90;37.30;;;;;;2596033;52;21038;-61
2021/04/04 00:14:37;;;;;;;2.87;1.23;;;5.80;37.30;;;;;;2341906;54;21028;-61
2021/04/04 00:17:04;;;;;;;3.78;1.35;;;5.80;37.40;;;;;;2362569;53;21009;-61
2021/04/04 00:19:33;;;;;;;4.72;1.50;;;5.70;37.40;;;;;;2371748;53;20997;-61
2021/04/04 00:22:00;;;;;;;2.67;0.98;;;5.70;37.50;;;;;;2609936;52;20916;-61
2021/04/04 00:24:27;;;;;;;8.30;3.70;;;5.70;37.60;;;;;;2361107;53;20922;-61
2021/04/04 00:26:53;;;;;;;6.43;2.33;;;5.60;37.50;;;;;;2595657;52;21778;-61
2021/04/04 00:29:20;;;;;;;4.50;2.05;;;5.60;37.60;;;;;;2372632;53;20910;-61
2021/04/04 00:31:46;;;;;;;4.82;2.03;;;5.60;37.70;;;;;;2370847;53;20949;-61
2021/04/04 00:34:14;;;;;;;5.03;2.25;;;5.60;37.70;;;;;;2614611;52;20976;-61
2021/04/04 00:36:40;;;;;;;3.50;1.58;;;5.50;37.80;;;;;;2604793;52;21470;-61
2021/04/04 00:39:07;;;;;;;3.65;1.60;;;5.50;37.80;;;;;;2598703;52;21020;-61
2021/04/04 00:41:37;;;;;;;4.10;1.37;;;5.50;37.90;;;;;;2371815;53;20993;-61
2021/04/04 00:44:05;;;;;;;4.05;1.40;;;5.50;38.00;;;;;;2371818;53;20953;-61
2021/04/04 00:46:31;;;;;;;2.47;1.20;;;5.40;37.90;;;;;;2593065;52;21075;-61
2021/04/04 00:48:58;;;;;;;4.43;1.33;;;5.40;38.00;;;;;;2358335;53;20995;-62
2021/04/04 00:51:25;;;;;;;3.25;1.25;;;5.40;38.00;;;;;;2589378;52;20953;-61
2021/04/04 00:53:51;;;;;;;2.60;1.08;;;5.40;38.00;;;;;;2371858;53;20918;-61
2021/04/04 00:56:18;;;;;;;3.15;1.20;;;5.40;38.10;;;;;;2352626;53;20946;-61
2021/04/04 00:58:44;;;;;;;3.72;1.10;;;5.40;38.20;;;;;;2372538;53;20914;-61
2021/04/04 01:01:10;;;;;;;2.53;1.05;;;5.30;38.20;;;;;;2363535;53;20919;-61
2021/04/04 01:03:37;;;;;;;3.97;1.60;;;5.30;38.20;;;;;;2362049;53;20926;-61
2021/04/04 01:06:07;;;;;;;2.97;1.25;;;5.30;38.20;;;;;;2371696;53;20942;-61
2021/04/04 01:08:37;;;;;;;3.70;1.33;;;5.30;38.40;;;;;;2352398;53;20934;-61
2021/04/04 01:11:05;;;;;;;4.25;1.42;;;5.30;38.50;;;;;;2371522;53;21687;-61
2021/04/04 01:13:42;;;;;;;3.78;1.30;;;5.20;38.50;;;;;;2372555;53;20954;-61
2021/04/04 01:16:21;;;;;;;2.72;1.20;;;5.20;38.70;;;;;;2372920;53;20989;-61
2021/04/04 01:26:20;;;;;;;3.20;1.25;;;5.20;38.70;;;;;;2624564;52;20934;-61
2021/04/04 01:28:47;;;;;;;2.75;1.00;;;5.20;38.80;;;;;;2352137;53;21520;-62
2021/04/04 01:31:13;;;;;;;2.80;1.05;;;5.10;38.00;;;;;;2354040;53;20946;-60
2021/04/04 01:33:40;;;;;;;2.33;1.10;;;5.10;38.20;;;;;;2374277;53;20961;-61
2021/04/04 01:36:10;;;;;;;2.70;1.20;;;5.00;38.30;;;;;;2596520;52;20986;-61
2021/04/04 01:38:38;;;;;;;2.70;1.30;;;5.00;38.40;;;;;;2603123;52;20944;-61
2021/04/04 01:41:10;;;;;;;3.25;1.08;;;5.00;38.50;;;;;;2367242;53;20914;-61
2021/04/04 01:43:38;;;;;;;2.97;1.20;;;4.90;38.50;;;;;;2375550;53;20910;-63
2021/04/04 01:46:04;;;;;;;2.50;0.90;;;4.90;38.60;;;;;;2591443;53;20980;-61
2021/04/04 01:48:30;;;;;;;2.65;1.20;;;4.90;38.60;;;;;;2353719;54;21272;-61
2021/04/04 01:50:57;;;;;;;2.67;0.98;;;4.90;38.60;;;;;;2624859;52;21025;-61
2021/04/04 01:53:23;;;;;;;3.30;1.10;;;4.80;38.70;;;;;;2366606;53;20991;-60
2021/04/04 01:55:50;;;;;;;3.08;1.25;;;4.80;38.70;;;;;;2347247;53;20956;-61
2021/04/04 01:58:16;;;;;;;5.12;1.20;;;4.80;38.90;;;;;;2362940;53;20934;-61
2021/04/04 02:00:43;;;;;;;2.50;1.10;;;4.70;38.80;;;;;;2352719;53;20967;-61
2021/04/04 02:03:09;;;;;;;3.65;1.25;;;4.70;38.80;;;;;;2372095;53;20997;-60
2021/04/04 02:05:35;;;;;;;4.55;1.25;;;4.70;38.80;;;;;;2351035;53;21754;-61
2021/04/04 02:08:07;;;;;;;2.75;1.27;;;4.70;39.00;;;;;;2353664;53;20942;-61
2021/04/04 02:10:36;;;;;;;3.92;1.33;;;4.60;39.00;;;;;;2352364;54;21528;-61
2021/04/04 02:13:03;;;;;;;3.87;1.60;;;4.60;39.00;;;;;;2371997;53;21048;-61
2021/04/04 02:15:31;;;;;;;4.50;1.50;;;4.60;39.10;;;;;;2354285;53;20915;-61
2021/04/04 02:17:57;;;;;;;4.12;1.55;;;4.60;39.10;;;;;;2594017;52;20959;-61
2021/04/04 02:20:25;;;;;;;3.08;1.30;;;4.50;39.00;;;;;;2350104;54;21016;-61
2021/04/04 02:22:55;;;;;;;3.65;1.40;;;4.50;39.10;;;;;;2351745;54;21353;-62
2021/04/04 02:25:21;;;;;;;3.35;1.52;;;4.50;39.10;;;;;;2351610;53;20939;-61
2021/04/04 02:27:48;;;;;;;3.97;1.30;;;4.50;39.20;;;;;;2371616;53;20954;-61
2021/04/04 02:30:16;;;;;;;3.47;1.30;;;4.40;39.20;;;;;;2370714;53;20963;-61
2021/04/04 02:33:11;;;;;;;3.15;1.30;;;4.40;39.20;;;;;;2339499;54;21004;-61
2021/04/04 02:35:44;;;;;;;2.92;1.15;;;4.40;39.60;;;;;;2329803;54;20972;-61
2021/04/04 02:38:14;;;;;;;5.25;1.33;;;4.40;39.30;;;;;;2335111;54;20949;-60
2021/04/04 02:40:42;;;;;;;3.80;1.27;;;4.30;39.20;;;;;;2597006;52;21497;-62
2021/04/04 02:43:08;;;;;;;4.20;1.33;;;4.30;39.30;;;;;;2557109;54;21028;-61
2021/04/04 02:45:35;;;;;;;3.80;1.35;;;4.30;39.40;;;;;;2340199;53;21016;-60
2021/04/04 02:48:04;;;;;;;3.33;1.10;;;4.30;39.40;;;;;;2567610;52;20960;-61
2021/04/04 02:50:31;;;;;;;3.97;1.25;;;4.20;39.50;;;;;;2343677;53;20923;-60
2021/04/04 02:53:01;;;;;;;5.18;2.00;;;4.20;39.50;;;;;;2350731;53;20920;-61
2021/04/04 02:55:28;;;;;;;3.22;1.55;;;4.20;39.80;;;;;;2600272;52;20949;-60
2021/04/04 02:57:54;;;;;;;4.28;1.62;;;4.20;39.80;;;;;;2344958;54;20928;-61
2021/04/04 03:00:22;;;;;;;3.30;1.50;;;4.20;39.80;;;;;;2344180;54;21024;-61
2021/04/04 03:02:53;;;;;;;4.00;1.75;;;4.20;39.90;;;;;;2590448;52;20940;-61
2021/04/04 03:05:21;;;;;;;4.50;1.62;;;4.10;39.90;;;;;;2344571;53;20972;-61
2021/04/04 03:07:47;;;;;;;2.83;1.37;;;4.10;39.90;;;;;;2344490;53;21479;-61
2021/04/04 03:10:17;;;;;;;3.42;1.60;;;4.10;39.90;;;;;;2362820;53;20905;-61
2021/04/04 03:12:43;;;;;;;3.72;1.20;;;4.10;40.00;;;;;;2367890;53;21213;-60
2021/04/04 03:15:15;;;;;;;5.82;1.40;;;4.00;39.90;;;;;;2358313;53;20997;-61
2021/04/04 03:17:42;;;;;;;4.43;1.83;;;4.00;39.90;;;;;;2595317;52;21706;-62
2021/04/04 03:20:10;;;;;;;4.12;1.70;;;4.00;40.00;;;;;;2367514;53;21499;-61
2021/04/04 03:22:37;;;;;;;3.55;1.33;;;4.00;40.00;;;;;;2367345;53;21010;-62
2021/04/04 03:25:05;;;;;;;4.18;1.80;;;3.90;40.00;;;;;;2367803;53;20912;-61
2021/04/04 03:27:31;;;;;;;5.18;1.58;;;3.70;39.80;;;;;;2367575;53;20974;-62
2021/04/04 03:29:58;;;;;;;4.65;1.58;;;3.90;40.00;;;;;;2355256;53;20950;-61
2021/04/04 03:32:24;;;;;;;5.15;1.67;;;3.90;40.00;;;;;;2352751;53;21013;-61
2021/04/04 03:34:53;;;;;;;3.72;1.60;;;3.80;40.00;;;;;;2357531;53;20942;-62
2021/04/04 03:37:22;;;;;;;3.65;1.45;;;3.80;40.00;;;;;;2359084;53;20969;-62
2021/04/04 03:39:49;;;;;;;3.28;1.70;;;3.80;40.10;;;;;;2613763;52;21467;-62
2021/04/04 03:42:15;;;;;;;3.95;1.67;;;3.80;40.10;;;;;;2590680;53;21096;-61
2021/04/04 03:44:41;;;;;;;5.32;1.80;;;3.80;40.20;;;;;;2356605;53;20894;-62
2021/04/04 03:47:08;;;;;;;4.78;2.00;;;3.80;40.30;;;;;;2352403;53;20981;-61
2021/04/04 03:49:34;;;;;;;7.18;2.70;;;3.70;40.20;;;;;;2367870;53;20945;-61
2021/04/04 03:52:00;;;;;;;5.82;2.50;;;3.70;40.30;;;;;;2369820;53;20992;-62
2021/04/04 03:54:27;;;;;;;4.40;2.03;;;3.70;40.30;;;;;;2349643;53;20889;-62
2021/04/04 03:56:54;;;;;;;7.65;2.45;;;3.70;40.40;;;;;;2356529;53;21001;-61
2021/04/04 03:59:22;;;;;;;5.47;2.20;;;3.70;40.40;;;;;;2614200;52;20965;-62
2021/04/04 04:01:50;;;;;;;7.40;2.42;;;3.60;40.50;;;;;;2357714;53;21057;-61
2021/04/04 04:04:16;;;;;;;3.92;1.48;;;3.60;40.50;;;;;;2358037;53;20890;-61
2021/04/04 04:06:44;;;;;;;6.32;2.40;;;3.60;40.50;;;;;;2363766;53;21896;-62
2021/04/04 04:09:14;;;;;;;5.57;2.03;;;3.60;40.50;;;;;;2357163;53;20975;-61
2021/04/04 04:11:42;;;;;;;4.87;2.10;;;3.60;40.60;;;;;;2351939;53;20920;-61
2021/04/04 04:14:11;;;;;;;5.57;1.90;;;3.60;40.60;;;;;;2367179;53;20926;-62
2021/04/04 04:16:37;;;;;;;5.60;1.83;;;3.60;40.70;;;;;;2372487;53;20961;-61
2021/04/04 04:19:04;;;;;;;3.78;1.50;;;3.50;40.70;;;;;;2351535;53;20913;-61
2021/04/04 04:21:34;;;;;;;4.95;1.50;;;3.50;40.80;;;;;;2350925;53;21635;-61
2021/04/04 04:24:21;;;;;;;5.12;1.75;;;3.50;40.80;;;;;;2365006;53;20926;-62
2021/04/04 04:26:47;;;;;;;4.45;1.52;;;3.50;41.40;;;;;;2357554;53;21005;-62
2021/04/04 04:29:18;;;;;;;3.20;1.23;;;3.50;41.10;;;;;;2369787;53;20966;-61
2021/04/04 04:31:46;;;;;;;3.30;1.40;;;3.50;41.20;;;;;;2352399;53;20972;-61
2021/04/04 04:34:12;;;;;;;4.70;1.58;;;3.50;41.20;;;;;;2369627;53;20957;-61
2021/04/04 04:36:39;;;;;;;5.72;1.40;;;3.50;41.20;;;;;;2350144;53;20996;-62
2021/04/04 04:39:07;;;;;;;4.72;1.50;;;3.40;41.20;;;;;;2367310;53;21577;-61
2021/04/04 04:41:34;;;;;;;3.25;1.30;;;3.40;41.20;;;;;;2600989;52;20998;-61
2021/04/04 04:44:02;;;;;;;3.58;1.20;;;3.40;41.20;;;;;;2608809;52;21033;-61
2021/04/04 04:46:30;;;;;;;3.75;1.23;;;3.50;41.40;;;;;;2349165;53;20914;-61
2021/04/04 04:48:56;;;;;;;3.42;1.37;;;3.50;41.40;;;;;;2596075;52;20982;-62
2021/04/04 04:51:23;;;;;;;4.93;1.35;;;3.40;41.20;;;;;;2352268;53;20937;-62
2021/04/04 04:53:49;;;;;;;2.60;1.20;;;3.50;41.30;;;;;;2596524;52;20991;-62
2021/04/04 04:56:16;;;;;;;3.97;1.50;;;3.40;41.20;;;;;;2355834;53;20959;-61
2021/04/04 04:58:42;;;;;;;5.05;1.60;;;3.40;41.20;;;;;;2351562;53;21000;-62
2021/04/04 05:01:16;;;;;;;5.40;1.83;;;3.40;41.20;;;;;;2367835;53;20918;-61
2021/04/04 05:03:42;;;;;;;6.35;1.62;;;3.40;42.00;;;;;;2368186;53;20977;-61
2021/04/04 05:06:10;;;;;;;6.15;1.60;;;3.40;41.40;;;;;;2360182;53;20973;-61
2021/04/04 05:08:42;;;;;;;4.35;1.37;;;3.40;41.50;;;;;;2359422;53;21724;-61
2021/04/04 05:11:10;;;;;;;4.20;1.85;;;3.30;41.40;;;;;;2367788;53;20894;-62
2021/04/04 05:13:39;;;;;;;4.47;1.67;;;3.30;41.40;;;;;;2367626;53;20917;-62
2021/04/04 05:16:15;;;;;;;5.43;1.83;;;3.30;41.50;;;;;;2355452;53;20946;-62
2021/04/04 05:18:47;;;;;;;4.40;1.73;;;3.30;41.60;;;;;;2365287;53;20969;-62
2021/04/04 05:21:23;;;;;;;4.80;2.20;;;3.30;41.60;;;;;;2367534;53;21385;-61
2021/04/04 05:23:49;;;;;;;6.28;1.90;;;3.30;41.80;;;;;;2610289;52;21054;-62
2021/04/04 05:26:15;;;;;;;4.30;1.67;;;3.30;41.80;;;;;;2604961;52;21136;-62
2021/04/04 05:28:41;;;;;;;5.22;1.70;;;3.30;41.80;;;;;;2367350;53;21402;-61
2021/04/04 05:31:11;;;;;;;5.53;1.80;;;3.30;41.90;;;;;;2617735;52;20941;-61
2021/04/04 05:33:39;;;;;;;5.45;2.20;;;3.30;42.20;;;;;;2618321;52;20881;-61
2021/04/04 05:36:05;;;;;;;5.18;1.90;;;3.40;42.40;;;;;;2367597;53;20893;-62
2021/04/04 05:38:32;;;;;;;5.00;2.30;;;3.40;42.40;;;;;;2618827;52;20889;-61
2021/04/04 05:40:59;;;;;;;4.55;1.42;;;3.40;42.40;;;;;;2618842;52;20905;-61
2021/04/04 05:43:26;;;;;;;5.15;2.22;;;3.40;42.40;;;;;;2618168;52;21008;-62
2021/04/04 05:49:34;;;;;;;4.82;1.90;;;3.50;42.40;;;;;;2367580;53;20925;-61
2021/04/04 05:52:06;;;;;;;4.37;1.80;;;3.50;42.90;;;;;;2562350;53;21043;-61
2021/04/04 05:55:01;;;;;;;5.20;1.75;;;3.50;42.20;;;;;;2338267;54;20942;-61
2021/04/04 05:58:21;;;;;;;7.85;2.20;;;3.50;42.40;;;;;;2371030;53;20910;-61
2021/04/04 06:00:47;;;;;;;5.43;1.80;;;3.50;42.10;;;;;;2622340;52;21009;-61
2021/04/04 06:06:42;;;;;;;4.30;1.92;;;3.50;42.10;;;;;;2624261;52;20942;-61
2021/04/04 06:09:23;;;;;;;5.95;2.08;;;3.60;42.90;;;;;;2370812;53;20925;-61
2021/04/04 06:13:38;;;;;;;6.95;2.15;;;3.60;42.30;;;;;;2371765;53;20930;-61
2021/04/04 06:25:55;;;;;;;7.97;3.30;;;3.60;43.00;;;;;;2372977;53;20942;-61
2021/04/04 06:29:12;;;;;;;4.32;1.73;;;3.70;43.10;;;;;;2340469;53;21035;-61
2021/04/04 06:32:44;;;;;;;6.20;2.35;;;3.80;42.80;;;;;;2375335;53;20942;-62
2021/04/04 06:35:38;;;;;;;7.60;2.83;;;3.90;43.30;;;;;;2371396;53;20945;-61
2021/04/04 06:41:30;;;;;;;6.97;3.10;;;3.90;43.30;;;;;;2338076;54;20951;-60
2021/04/04 06:49:08;;;;;;;6.03;2.85;;;4.00;43.50;;;;;;2371206;53;21734;-61
2021/04/04 06:52:10;;;;;;;4.15;1.40;;;4.40;45.80;;;;;;2359609;53;20955;-61
2021/04/04 06:56:41;;;;;;;3.95;1.37;;;6.20;49.80;;;;;;2589070;53;20966;-61
2021/04/04 06:59:41;;;;;;;4.20;1.80;;;7.70;50.60;;;;;;2570811;52;21318;-61
2021/04/04 07:02:08;;;;;;;3.42;1.60;;;8.60;50.80;;;;;;2371035;53;20918;-62
2021/04/04 07:05:20;;;;;;;3.70;1.77;;;9.30;49.40;;;;;;2352340;53;20918;-61
2021/04/04 07:10:53;;;;;;;4.80;1.92;;;9.90;47.40;;;;;;2623579;52;20920;-62
2021/04/04 07:15:42;;;;;;;4.45;1.58;;;10.20;45.00;;;;;;2370985;53;20950;-62
2021/04/04 07:20:19;;;;;;;3.53;1.60;;;10.40;43.10;;;;;;2623593;52;20937;-62
2021/04/04 07:24:35;;;;;;;3.45;1.50;;;10.50;43.30;;;;;;2342759;53;21028;-62
2021/04/04 07:30:29;;;;;;;6.62;1.87;;;10.90;44.30;;;;;;2604986;52;20993;-62
2021/04/04 07:33:18;;;;;;;2.47;1.20;;;11.70;45.30;;;;;;2363540;53;20989;-62
2021/04/04 07:37:43;;;;;;;3.45;1.30;;;12.10;45.60;;;;;;2351654;54;20977;-62
2021/04/04 07:40:14;;;;;;;4.05;1.60;;;12.50;44.80;;;;;;2367163;53;20897;-62
2021/04/04 07:44:21;;;;;;;3.95;1.60;;;12.90;43.80;;;;;;2619163;52;20922;-62
2021/04/04 07:46:55;;;;;;;3.33;1.25;;;13.10;42.40;;;;;;2351827;53;21102;-62
2021/04/04 07:49:43;;;;;;;3.05;1.10;;;13.10;41.60;;;;;;2590791;53;21043;-62
2021/04/04 07:52:26;;;;;;;3.20;1.37;;;13.10;40.80;;;;;;2347779;53;20967;-62
2021/04/04 07:55:00;;;;;;;5.15;1.45;;;13.10;40.70;;;;;;2590484;53;21070;-62
2021/04/04 08:00:04;;;;;;;4.10;1.58;;;12.90;40.40;;;;;;2347715;53;21023;-62
2021/04/04 08:02:44;;;;;;;3.12;1.25;;;13.00;40.30;;;;;;2590928;53;20936;-63
2021/04/04 08:05:12;;;;;;;3.08;1.42;;;13.00;40.00;;;;;;2343984;53;20865;-65
2021/04/04 08:07:59;;;;;;;4.50;1.80;;;12.90;39.90;;;;;;2590855;53;20940;-63
2021/04/04 08:10:51;;;;;;;5.57;1.70;;;13.00;39.80;;;;;;2343885;53;20996;-63
2021/04/04 08:15:11;;;;;;;4.12;1.90;;;12.90;39.70;;;;;;2561819;53;20985;-63
2021/04/04 08:17:43;;;;;;;4.18;1.70;;;12.90;39.90;;;;;;2589654;53;20980;-64
2021/04/04 08:20:27;;;;;;;3.95;1.65;;;12.90;40.00;;;;;;2612049;52;20922;-62
2021/04/04 08:23:03;;;;;;;9.93;1.90;;;13.00;40.10;;;;;;2368037;53;20997;-63
2021/04/04 08:25:44;;;;;;;5.70;1.90;;;13.10;40.20;;;;;;2351102;53;21466;-62
2021/04/04 08:28:21;;;;;;;6.27;2.43;;;13.30;40.40;;;;;;2619180;52;20941;-62
2021/04/04 08:30:51;;;;;;;4.60;1.98;;;13.40;40.60;;;;;;2618951;52;20961;-62
2021/04/04 08:33:20;;;;;;;4.55;2.03;;;13.60;40.70;;;;;;2351690;54;20901;-63
2021/04/04 08:35:48;;;;;;;4.47;2.10;;;13.80;40.70;;;;;;2595702;52;20885;-63
2021/04/04 08:38:29;;;;;;;4.07;1.87;;;14.10;40.70;;;;;;2619374;52;20938;-63
2021/04/04 08:40:57;;;;;;;5.32;2.20;;;14.40;40.40;;;;;;2619344;52;21394;-63
2021/04/04 08:43:24;;;;;;;4.05;2.00;;;14.60;40.30;;;;;;2367062;53;21044;-63
2021/04/04 08:46:03;;;;;;;5.60;1.90;;;14.80;40.10;;;;;;2367600;53;20913;-63
2021/04/04 08:48:29;;;;;;;3.95;1.83;;;15.00;40.00;;;;;;2360734;53;20942;-62
2021/04/04 08:50:57;;;;;;;5.28;1.87;;;15.20;40.10;;;;;;2358781;53;20913;-64
2021/04/04 08:53:30;;;;;;;4.82;2.10;;;15.40;40.10;;;;;;2367892;53;20913;-63
2021/04/04 08:55:58;;;;;;;4.68;1.98;;;15.60;40.10;;;;;;2367571;53;20922;-62
2021/04/04 08:58:31;;;;;;;4.00;1.98;;;15.80;40.20;;;;;;2368327;53;20893;-64
2021/04/04 09:01:03;;;;;;;4.47;1.95;;;16.00;40.20;;;;;;2367461;53;20977;-63
2021/04/04 09:03:30;;;;;;;4.12;1.92;;;16.30;40.50;;;;;;2619115;52;20909;-63
2021/04/04 09:06:03;;;;;;;4.43;1.73;;;16.60;40.90;;;;;;2367471;53;20965;-63
2021/04/04 09:08:31;;;;;;;4.82;2.08;;;16.90;40.80;;;;;;2351272;53;21363;-64
2021/04/04 09:10:58;;;;;;;5.55;2.03;;;17.30;41.10;;;;;;2356617;53;21744;-63
2021/04/04 09:13:26;;;;;;;3.55;1.75;;;17.70;41.00;;;;;;2352674;53;20926;-62
2021/04/04 09:15:56;;;;;;;4.25;1.70;;;18.10;40.80;;;;;;2604158;52;21382;-64
2021/04/04 09:18:23;;;;;;;4.57;1.80;;;18.50;40.50;;;;;;2370249;53;20926;-63
2021/04/04 09:20:51;;;;;;;6.47;2.28;;;18.80;40.30;;;;;;2597350;52;21046;-64
2021/04/04 09:23:21;;;;;;;5.47;2.60;;;19.10;39.70;;;;;;2352990;53;20978;-66
2021/04/04 09:25:58;;;;;;;5.65;2.15;;;19.40;38.80;;;;;;2350893;53;21459;-66
2021/04/04 09:28:28;;;;;;;5.10;2.08;;;19.50;38.30;;;;;;2568278;53;20933;-65
2021/04/04 09:30:54;;;;;;;4.62;1.98;;;19.70;37.90;;;;;;2588611;52;21014;-65
2021/04/04 09:33:28;;;;;;;4.68;1.85;;;19.80;37.70;;;;;;2352750;53;20974;-66
2021/04/04 09:35:56;;;;;;;4.62;1.67;;;19.90;36.50;;;;;;2595544;52;20973;-65
2021/04/04 09:38:40;;;;;;;5.87;1.90;;;19.90;36.00;;;;;;2474191;52;2579178;-65
2021/04/04 09:41:08;;;;;;;3.75;1.37;;;19.90;35.10;;;;;;2600701;52;20938;-65
2021/04/04 09:44:02;;;;;;;4.12;1.85;;;19.80;35.00;;;;;;2363992;53;20926;-65
2021/04/04 09:46:31;;;;;;;4.75;1.70;;;19.70;34.60;;;;;;2595206;52;20922;-64
2021/04/04 09:48:58;;;;;;;4.65;1.62;;;19.50;34.40;;;;;;2351270;54;20921;-64
2021/04/04 09:51:24;;;;;;;5.45;1.87;;;19.40;34.60;;;;;;2619172;52;21637;-65
2021/04/04 09:53:51;;;;;;;9.32;2.53;;;19.30;34.90;;;;;;2367802;53;21145;-64
2021/04/04 09:56:31;;;;;;;4.95;1.75;;;19.30;35.20;;;;;;2347099;53;21017;-65
2021/04/04 09:58:58;;;;;;;4.45;1.48;;;19.30;34.90;;;;;;2563378;53;21848;-65
2021/04/04 10:01:31;;;;;;;3.40;1.33;;;19.40;35.80;;;;;;2343550;53;21791;-65
2021/04/04 10:04:15;;;;;;;3.80;1.55;;;19.50;35.70;;;;;;2328734;54;21096;-72
2021/04/04 10:06:44;;;;;;;3.97;1.67;;;19.70;35.00;;;;;;2594964;52;20966;-66
2021/04/04 10:09:12;;;;;;;5.32;1.80;;;19.80;35.30;;;;;;2366566;53;20968;-67
2021/04/04 10:11:39;;;;;;;4.68;1.80;;;19.90;34.80;;;;;;2618934;52;20973;-65
2021/04/04 10:14:26;;;;;;;4.68;1.73;;;20.00;34.30;;;;;;2601432;52;20958;-64
2021/04/04 10:17:08;;;;;;;5.05;1.92;;;20.00;33.50;;;;;;2366428;53;20989;-65
2021/04/04 10:19:52;;;;;;;5.82;1.55;;;20.00;33.00;;;;;;2356340;53;21832;-63
2021/04/04 10:22:22;;;;;;;3.58;1.70;;;19.90;33.50;;;;;;2608638;52;21018;-65
2021/04/04 10:24:48;;;;;;;4.75;1.70;;;19.90;33.80;;;;;;2590736;53;21089;-64
2021/04/04 10:27:33;;;;;;;4.10;1.60;;;19.90;33.70;;;;;;2617005;52;20906;-62
2021/04/04 10:30:34;;;;;;;4.03;1.50;;;19.90;32.90;;;;;;2351189;54;21161;-66
2021/04/04 10:33:20;;;;;;;4.07;1.45;;;19.80;32.60;;;;;;2324644;54;20928;-64
2021/04/04 10:35:46;;;;;;;3.78;1.90;;;19.80;32.70;;;;;;2344224;53;20947;-64
2021/04/04 10:38:21;;;;;;;6.20;1.70;;;19.90;33.60;;;;;;2589805;53;21748;-68
2021/04/04 10:40:53;;;;;;;4.10;1.60;;;20.00;33.60;;;;;;2590100;53;21593;-67
2021/04/04 10:43:53;;;;;;;4.32;1.45;;;20.10;33.50;;;;;;2574553;53;20982;-67
2021/04/04 10:46:29;;;;;;;5.05;2.00;;;20.20;33.60;;;;;;2342029;54;21016;-68
2021/04/04 10:48:58;;;;;;;4.05;1.55;;;20.40;33.30;;;;;;2589918;52;21016;-66
2021/04/04 10:51:27;;;;;;;5.83;1.80;;;20.40;33.20;;;;;;2344856;53;21004;-66
2021/04/04 10:53:58;;;;;;;5.37;1.60;;;20.50;33.20;;;;;;2584700;52;21003;-67
2021/04/04 10:56:24;;;;;;;3.45;1.40;;;20.50;33.10;;;;;;2343235;53;20928;-66
2021/04/04 10:58:51;;;;;;;5.62;1.87;;;20.60;33.60;;;;;;2343720;54;20960;-66
2021/04/04 11:01:18;;;;;;;3.60;1.60;;;20.80;34.00;;;;;;2349088;53;20918;-66
2021/04/04 11:03:45;;;;;;;3.92;1.60;;;20.90;34.00;;;;;;2342689;53;20934;-65
2021/04/04 11:06:12;;;;;;;4.90;1.80;;;21.10;33.80;;;;;;2584752;52;20930;-66
2021/04/04 11:08:43;;;;;;;4.80;1.95;;;21.20;33.30;;;;;;2590382;52;21012;-66
2021/04/04 11:11:11;;;;;;;4.15;1.62;;;21.30;32.80;;;;;;2345826;53;21419;-70
2021/04/04 11:13:39;;;;;;;4.18;1.70;;;21.30;32.60;;;;;;2342011;53;22067;-69
2021/04/04 11:16:09;;;;;;;4.05;1.60;;;21.30;32.20;;;;;;2343570;54;20913;-65
2021/04/04 11:18:49;;;;;;;4.32;1.73;;;21.30;31.80;;;;;;2343228;54;20989;-68
2021/04/04 11:21:29;;;;;;;5.97;2.08;;;21.40;31.30;;;;;;2344214;54;20944;-63
2021/04/04 11:23:55;;;;;;;4.75;1.77;;;21.40;31.50;;;;;;2344054;54;20937;-66
2021/04/04 11:26:33;;;;;;;3.97;1.40;;;21.40;31.90;;;;;;2345387;53;20911;-68
2021/04/04 11:29:20;;;;;;;4.07;1.60;;;21.50;31.80;;;;;;2585928;52;20957;-66
2021/04/04 11:31:50;;;;;;;5.20;1.92;;;21.70;31.60;;;;;;2347109;53;21598;-68
2021/04/04 11:35:58;;;;;;;3.53;1.50;;;21.90;32.30;;;;;;2342387;53;20929;-67
2021/04/04 11:38:25;;;;;;;4.80;1.77;;;22.10;31.80;;;;;;2589945;52;20909;-66
2021/04/04 11:41:20;;;;;;;3.37;1.58;;;22.20;31.60;;;;;;2344052;54;20917;-67
2021/04/04 11:44:09;;;;;;;4.97;1.45;;;22.30;30.40;;;;;;2343501;54;20909;-67
2021/04/04 11:48:09;;;;;;;3.12;1.65;;;22.30;30.70;;;;;;2586355;52;20995;-66
2021/04/04 11:50:35;;;;;;;4.57;1.70;;;22.30;30.00;;;;;;2344130;54;21052;-65
2021/04/04 11:53:02;;;;;;;4.43;1.67;;;22.30;30.60;;;;;;2591195;52;21116;-67
2021/04/04 11:55:45;;;;;;;3.55;1.50;;;22.30;30.60;;;;;;2343835;54;20992;-65
2021/04/04 11:58:11;;;;;;;3.33;1.40;;;22.40;30.30;;;;;;2577455;53;20926;-65
2021/04/04 12:00:38;;;;;;;5.15;1.73;;;22.40;30.40;;;;;;2580318;52;20969;-68
2021/04/04 12:03:06;;;;;;;4.18;1.60;;;22.50;30.10;;;;;;2353170;53;21025;-65
2021/04/04 12:05:36;;;;;;;4.15;1.83;;;22.50;30.10;;;;;;2596363;52;22314;-66
2021/04/04 12:08:04;;;;;;;4.82;1.90;;;22.60;30.00;;;;;;2595251;52;21024;-68
2021/04/04 12:10:36;;;;;;;3.87;1.90;;;22.70;30.30;;;;;;2619271;52;20910;-66
2021/04/04 12:13:02;;;;;;;4.70;1.83;;;22.80;30.00;;;;;;2363977;53;20999;-64
2021/04/04 12:15:29;;;;;;;5.57;1.73;;;22.90;29.70;;;;;;2355401;53;20976;-66
2021/04/04 12:18:03;;;;;;;4.82;2.20;;;22.90;29.40;;;;;;2599873;52;21133;-67
2021/04/04 12:20:32;;;;;;;4.20;1.62;;;22.90;29.40;;;;;;2352196;53;21783;-66
2021/04/04 12:22:58;;;;;;;3.72;1.52;;;23.00;29.50;;;;;;2355000;53;20917;-65
2021/04/04 12:25:26;;;;;;;4.95;2.00;;;23.00;29.40;;;;;;2618887;52;21442;-65
2021/04/04 12:27:53;;;;;;;6.28;1.67;;;23.10;29.10;;;;;;2599983;52;20973;-65
2021/04/04 12:30:38;;;;;;;4.60;1.77;;;23.00;28.80;;;;;;2362451;53;21013;-64
2021/04/04 12:33:27;;;;;;;6.15;1.83;;;23.10;28.70;;;;;;2601870;52;21272;-68
2021/04/04 12:35:53;;;;;;;4.40;1.48;;;23.10;28.30;;;;;;2595767;52;21015;-65
2021/04/04 12:38:38;;;;;;;5.10;1.77;;;23.00;28.70;;;;;;2591639;53;20962;-65
2021/04/04 12:41:05;;;;;;;4.22;1.70;;;23.00;28.60;;;;;;2613095;52;21766;-65
2021/04/04 12:43:37;;;;;;;4.60;2.00;;;22.90;28.00;;;;;;2616117;52;20922;-67
2021/04/04 12:46:08;;;;;;;4.20;1.40;;;22.80;27.90;;;;;;2354650;53;21001;-66
2021/04/04 12:48:38;;;;;;;3.53;1.60;;;22.70;27.70;;;;;;2616412;52;20969;-65
2021/04/04 12:51:05;;;;;;;3.42;1.48;;;22.70;27.80;;;;;;2367935;53;20909;-65
2021/04/04 12:53:33;;;;;;;4.22;1.60;;;22.60;27.90;;;;;;2619162;52;20969;-64
2021/04/04 12:56:00;;;;;;;4.25;1.70;;;22.50;28.00;;;;;;2605941;52;20966;-66
2021/04/04 12:58:36;;;;;;;4.12;1.48;;;22.50;28.00;;;;;;2602892;52;20960;-67
2021/04/04 13:01:04;;;;;;;4.93;1.50;;;22.40;27.60;;;;;;2615833;52;21882;-65
2021/04/04 13:03:32;;;;;;;5.32;1.52;;;22.40;27.90;;;;;;2591265;53;21014;-64
2021/04/04 13:05:58;;;;;;;3.78;1.30;;;22.40;27.90;;;;;;2360115;53;20977;-65
2021/04/04 13:08:28;;;;;;;4.15;1.27;;;22.40;27.90;;;;;;2365312;53;21388;-64
2021/04/04 13:10:57;;;;;;;3.37;1.37;;;22.40;28.00;;;;;;2347671;53;20924;-64
2021/04/04 13:13:33;;;;;;;4.65;1.55;;;22.40;28.10;;;;;;2363309;53;20929;-66
2021/04/04 13:16:11;;;;;;;3.90;1.55;;;22.40;27.50;;;;;;2599439;52;20958;-64
2021/04/04 13:18:45;;;;;;;5.60;1.52;;;22.30;27.30;;;;;;2366276;53;20952;-66
2021/04/04 13:21:28;;;;;;;4.28;1.83;;;22.30;27.10;;;;;;2368222;53;21714;-63
2021/04/04 13:23:56;;;;;;;4.97;1.55;;;22.10;26.90;;;;;;2359354;53;20997;-64
2021/04/04 13:26:35;;;;;;;3.30;1.30;;;22.00;27.00;;;;;;2348045;53;21501;-64
2021/04/04 13:29:05;;;;;;;5.32;1.67;;;21.90;26.90;;;;;;2368208;53;21060;-65
2021/04/04 13:31:32;;;;;;;3.83;1.52;;;21.80;27.00;;;;;;2367498;53;21036;-65
2021/04/04 13:34:35;;;;;;;4.22;1.37;;;21.70;27.20;;;;;;2366911;53;20928;-64
2021/04/04 13:37:02;;;;;;;4.62;1.42;;;21.60;27.00;;;;;;2367925;53;21700;-63
2021/04/04 13:39:37;;;;;;;3.08;1.50;;;21.50;27.10;;;;;;2367704;53;21028;-66
2021/04/04 13:42:04;;;;;;;3.67;1.50;;;21.40;26.80;;;;;;2618929;52;21992;-65
2021/04/04 13:44:45;;;;;;;3.37;1.20;;;21.40;27.00;;;;;;2367646;53;21406;-65
2021/04/04 13:47:24;;;;;;;5.25;1.55;;;21.30;27.10;;;;;;2619105;52;20921;-64
2021/04/04 13:49:50;;;;;;;4.70;1.65;;;21.20;26.90;;;;;;2351943;54;20938;-64
2021/04/04 13:52:23;;;;;;;3.55;1.45;;;21.20;27.00;;;;;;2357840;53;21062;-63
2021/04/04 13:54:52;;;;;;;5.45;1.45;;;21.10;27.00;;;;;;2339758;54;21332;-65
2021/04/04 13:57:38;;;;;;;5.03;1.90;;;21.10;27.00;;;;;;2353006;53;20931;-63
2021/04/04 14:00:10;;;;;;;4.72;1.45;;;21.00;26.80;;;;;;2360065;53;20985;-64
2021/04/04 14:02:39;;;;;;;6.40;1.30;;;21.00;27.00;;;;;;2367502;53;20997;-65
2021/04/04 14:05:26;;;;;;;6.32;1.77;;;20.90;27.00;;;;;;2367326;53;20945;-66
2021/04/04 14:07:53;;;;;;;3.50;1.30;;;20.90;27.10;;;;;;2351491;54;20909;-63
2021/04/04 14:10:19;;;;;;;6.32;1.60;;;20.90;27.30;;;;;;2367596;53;20973;-64
2021/04/04 14:12:47;;;;;;;3.67;1.48;;;20.90;27.30;;;;;;2358086;53;21041;-63
2021/04/04 14:15:13;;;;;;;2.92;1.17;;;20.90;27.20;;;;;;2358429;53;20929;-64
2021/04/04 14:17:40;;;;;;;3.15;1.42;;;20.90;27.40;;;;;;2598279;52;21406;-63